Seabulk Challenge — KNJL — position and weather

sailwx.info

Track history (hours):
 
Tides and Currents Weather Stations Pressure Air Temp Water Temp Dewpoint Dewpoint Depression Visibility Wind Speed Wind Dir Waves Ship Positions

Seabulk Challenge

Owner: Seabulk Tankers, Inc., Fort Lauderdale, FL. More information available from US FCC via Universal Licensing System and Coast Guard Vessel Documentation Center.

Last reported at 2016-May-05 15:32 UTC. Time now 2016-May-05 16:17 UTC.
Position N 28°57' W 093°30'.

Length 192 m; draft 10.3 m.

Type: Tanker. MMSI: 303104000.

Date/timePositionNaut miles runAvg speedWind from/ knotsBaromVisibWave heightAir tempDewpointWater temp
2016-May-05 15:32N 28°57' W 093°30'4413.3
2016-May-05 12:13N 28°22' W 092°59'54413.1
2016-May-03 18:33N 27°36' W 082°45'1313.1
2016-May-03 17:33N 27°43' W 082°32'1211.7
2016-May-03 16:33N 27°53' W 082°26'2 1.8
2016-May-03 15:33N 27°55' W 082°27'0 0.0
2016-May-03 14:33N 27°55' W 082°27'0 0.0
2016-May-03 13:33N 27°55' W 082°27'0 0.0
2016-May-03 12:33N 27°55' W 082°27'0 0.0
2016-May-03 11:33N 27°55' W 082°27'0 0.0
2016-May-03 10:33N 27°55' W 082°27'0 0.0
2016-May-03 09:33N 27°55' W 082°27'0 0.0
2016-May-03 08:33N 27°55' W 082°27'0 0.0
2016-May-03 07:33N 27°55' W 082°27'0 0.0
2016-May-03 06:33N 27°55' W 082°27'0 0.0
2016-May-03 05:33N 27°55' W 082°27'0 0.0
2016-May-03 04:33N 27°55' W 082°27'1 0.9
2016-May-03 03:33N 27°54' W 082°26'8 7.6
2016-May-03 02:33N 27°47' W 082°30'10 9.6
2016-May-03 01:33N 27°40' W 082°36'3 0.1
2016-May-01 01:09N 27°38' W 082°34'1 2.4
2016-May-01 00:33N 27°39' W 082°35'11 9.9
2016-Apr-30 23:28N 27°37' W 082°47'1112.0
2016-Apr-30 22:33N 27°36' W 082°59'1312.7
2016-Apr-30 21:31N 27°33' W 083°14'20 4.0
2016-Apr-30 16:28N 27°12' W 083°15'1713.8
2016-Apr-30 15:13N 26°55' W 083°14'913.6
2016-Apr-30 14:33N 26°46' W 083°15'1313.3
2016-Apr-30 13:33N 26°33' W 083°14'1313.4
2016-Apr-30 12:33N 26°20' W 083°14'1313.5
2016-Apr-30 11:33N 26°06' W 083°14'1414.2
2016-Apr-30 10:34N 25°52' W 083°14'1714.5
2016-Apr-30 09:25N 25°35' W 083°14'4514.4
2016-Apr-30 06:19N 24°51' W 083°15'1113.7
2016-Apr-30 05:33N 24°40' W 083°15'2114.2
2016-Apr-30 04:04N 24°19' W 083°12'19512.2
2016-Apr-29 12:09N 25°41' W 079°57'711.0
2016-Apr-29 11:32N 25°47' W 079°55'1111.1
2016-Apr-29 10:33N 25°58' W 079°54'1111.3
2016-Apr-29 09:33N 26°09' W 079°53'1111.5
2016-Apr-29 08:33N 26°21' W 079°52'1111.1
2016-Apr-29 07:33N 26°32' W 079°51'1110.8
2016-Apr-29 06:33N 26°43' W 079°52'1111.2
2016-Apr-29 05:33N 26°54' W 079°53'1111.1
2016-Apr-29 04:33N 27°05' W 079°55'  
2016-Apr-26 22:31N 26°32' W 079°45'1717.2
2016-Apr-26 21:33N 26°15' W 079°47'1717.0
2016-Apr-26 20:33N 25°58' W 079°48'  
Track history (hours):
 
Tides and Currents Weather Stations Pressure Air Temp Water Temp Dewpoint Dewpoint Depression Visibility Wind Speed Wind Dir Waves Ship Positions

Seabulk Challenge

Owner: Seabulk Tankers, Inc., Fort Lauderdale, FL. More information available from US FCC via Universal Licensing System and Coast Guard Vessel Documentation Center.

Last reported at 2016-May-05 15:32 UTC. Time now 2016-May-05 16:17 UTC.
Position N 28°57' W 093°30'.

Length 192 m; draft 10.3 m.

Type: Tanker. MMSI: 303104000.

Date/timePositionNaut miles runAvg speedWind from/ knotsBaromVisibWave heightAir tempDewpointWater temp
2016-May-05 15:32N 28°57' W 093°30'4413.3
2016-May-05 12:13N 28°22' W 092°59'54413.1
2016-May-03 18:33N 27°36' W 082°45'1313.1
2016-May-03 17:33N 27°43' W 082°32'1211.7
2016-May-03 16:33N 27°53' W 082°26'2 1.8
2016-May-03 15:33N 27°55' W 082°27'0 0.0
2016-May-03 14:33N 27°55' W 082°27'0 0.0
2016-May-03 13:33N 27°55' W 082°27'0 0.0
2016-May-03 12:33N 27°55' W 082°27'0 0.0
2016-May-03 11:33N 27°55' W 082°27'0 0.0
2016-May-03 10:33N 27°55' W 082°27'0 0.0
2016-May-03 09:33N 27°55' W 082°27'0 0.0
2016-May-03 08:33N 27°55' W 082°27'0 0.0
2016-May-03 07:33N 27°55' W 082°27'0 0.0
2016-May-03 06:33N 27°55' W 082°27'0 0.0
2016-May-03 05:33N 27°55' W 082°27'0 0.0
2016-May-03 04:33N 27°55' W 082°27'1 0.9
2016-May-03 03:33N 27°54' W 082°26'8 7.6
2016-May-03 02:33N 27°47' W 082°30'10 9.6
2016-May-03 01:33N 27°40' W 082°36'3 0.1
2016-May-01 01:09N 27°38' W 082°34'1 2.4
2016-May-01 00:33N 27°39' W 082°35'11 9.9
2016-Apr-30 23:28N 27°37' W 082°47'1112.0
2016-Apr-30 22:33N 27°36' W 082°59'1312.7
2016-Apr-30 21:31N 27°33' W 083°14'20 4.0
2016-Apr-30 16:28N 27°12' W 083°15'1713.8
2016-Apr-30 15:13N 26°55' W 083°14'913.6
2016-Apr-30 14:33N 26°46' W 083°15'1313.3
2016-Apr-30 13:33N 26°33' W 083°14'1313.4
2016-Apr-30 12:33N 26°20' W 083°14'1313.5
2016-Apr-30 11:33N 26°06' W 083°14'1414.2
2016-Apr-30 10:34N 25°52' W 083°14'1714.5
2016-Apr-30 09:25N 25°35' W 083°14'4514.4
2016-Apr-30 06:19N 24°51' W 083°15'1113.7
2016-Apr-30 05:33N 24°40' W 083°15'2114.2
2016-Apr-30 04:04N 24°19' W 083°12'19512.2
2016-Apr-29 12:09N 25°41' W 079°57'711.0
2016-Apr-29 11:32N 25°47' W 079°55'1111.1
2016-Apr-29 10:33N 25°58' W 079°54'1111.3
2016-Apr-29 09:33N 26°09' W 079°53'1111.5
2016-Apr-29 08:33N 26°21' W 079°52'1111.1
2016-Apr-29 07:33N 26°32' W 079°51'1110.8
2016-Apr-29 06:33N 26°43' W 079°52'1111.2
2016-Apr-29 05:33N 26°54' W 079°53'1111.1
2016-Apr-29 04:33N 27°05' W 079°55'  
2016-Apr-26 22:31N 26°32' W 079°45'1717.2
2016-Apr-26 21:33N 26°15' W 079°47'1717.0
2016-Apr-26 20:33N 25°58' W 079°48'  

Dump ship's entire track history